sensor_id;sensor_type;location;lat;lon;timestamp;P1;durP1;ratioP1;P2;durP2;ratioP2
18752;SDS011;9505;50.882;5.350;2023-02-01T00:01:39;47.75;;;11.65;;
18752;SDS011;9505;50.882;5.350;2023-02-01T00:04:05;43.60;;;11.95;;
18752;SDS011;9505;50.882;5.350;2023-02-01T00:06:30;38.72;;;11.35;;
18752;SDS011;9505;50.882;5.350;2023-02-01T00:08:56;55.85;;;13.20;;
18752;SDS011;9505;50.882;5.350;2023-02-01T00:11:22;43.28;;;12.45;;
18752;SDS011;9505;50.882;5.350;2023-02-01T00:13:48;44.75;;;12.13;;
18752;SDS011;9505;50.882;5.350;2023-02-01T00:16:15;30.63;;;11.18;;
18752;SDS011;9505;50.882;5.350;2023-02-01T00:18:46;47.42;;;13.57;;
18752;SDS011;9505;50.882;5.350;2023-02-01T00:21:13;46.35;;;13.25;;
18752;SDS011;9505;50.882;5.350;2023-02-01T00:23:40;52.95;;;15.02;;
18752;SDS011;9505;50.882;5.350;2023-02-01T00:26:07;41.08;;;12.10;;
18752;SDS011;9505;50.882;5.350;2023-02-01T00:28:37;51.47;;;13.05;;
18752;SDS011;9505;50.882;5.350;2023-02-01T00:31:03;46.97;;;12.50;;
18752;SDS011;9505;50.882;5.350;2023-02-01T00:33:30;42.38;;;12.57;;
18752;SDS011;9505;50.882;5.350;2023-02-01T00:35:58;42.40;;;11.70;;
18752;SDS011;9505;50.882;5.350;2023-02-01T00:38:25;46.58;;;12.88;;
18752;SDS011;9505;50.882;5.350;2023-02-01T00:40:51;58.47;;;15.07;;
18752;SDS011;9505;50.882;5.350;2023-02-01T00:43:17;71.00;;;13.15;;
18752;SDS011;9505;50.882;5.350;2023-02-01T00:45:42;53.80;;;13.25;;
18752;SDS011;9505;50.882;5.350;2023-02-01T00:48:08;47.97;;;12.15;;
18752;SDS011;9505;50.882;5.350;2023-02-01T00:50:33;38.35;;;10.48;;
18752;SDS011;9505;50.882;5.350;2023-02-01T00:52:59;53.22;;;12.50;;
18752;SDS011;9505;50.882;5.350;2023-02-01T00:55:24;46.45;;;12.50;;
18752;SDS011;9505;50.882;5.350;2023-02-01T00:57:50;45.33;;;11.32;;
18752;SDS011;9505;50.882;5.350;2023-02-01T01:00:16;46.88;;;12.93;;
18752;SDS011;9505;50.882;5.350;2023-02-01T01:02:42;46.40;;;12.25;;
18752;SDS011;9505;50.882;5.350;2023-02-01T01:05:07;51.92;;;12.98;;
18752;SDS011;9505;50.882;5.350;2023-02-01T01:07:33;43.38;;;11.23;;
18752;SDS011;9505;50.882;5.350;2023-02-01T01:09:58;35.85;;;12.00;;
18752;SDS011;9505;50.882;5.350;2023-02-01T01:12:25;49.80;;;12.88;;
18752;SDS011;9505;50.882;5.350;2023-02-01T01:14:50;45.25;;;12.10;;
18752;SDS011;9505;50.882;5.350;2023-02-01T01:17:16;37.83;;;10.57;;
18752;SDS011;9505;50.882;5.350;2023-02-01T01:19:41;63.45;;;12.43;;
18752;SDS011;9505;50.882;5.350;2023-02-01T01:22:07;52.88;;;13.73;;
18752;SDS011;9505;50.882;5.350;2023-02-01T01:24:33;41.17;;;12.02;;
18752;SDS011;9505;50.882;5.350;2023-02-01T01:26:58;42.65;;;12.13;;
18752;SDS011;9505;50.882;5.350;2023-02-01T01:29:24;44.70;;;12.73;;
18752;SDS011;9505;50.882;5.350;2023-02-01T01:31:49;60.03;;;12.63;;
18752;SDS011;9505;50.882;5.350;2023-02-01T01:34:15;58.47;;;13.45;;
18752;SDS011;9505;50.882;5.350;2023-02-01T01:36:40;44.28;;;12.88;;
18752;SDS011;9505;50.882;5.350;2023-02-01T01:39:06;42.42;;;11.18;;
18752;SDS011;9505;50.882;5.350;2023-02-01T01:41:32;51.17;;;12.55;;
18752;SDS011;9505;50.882;5.350;2023-02-01T01:46:26;40.00;;;11.95;;
18752;SDS011;9505;50.882;5.350;2023-02-01T01:49:11;44.22;;;12.35;;
18752;SDS011;9505;50.882;5.350;2023-02-01T01:51:41;39.28;;;10.98;;
18752;SDS011;9505;50.882;5.350;2023-02-01T01:54:18;53.85;;;13.07;;
18752;SDS011;9505;50.882;5.350;2023-02-01T01:56:50;43.90;;;12.02;;
18752;SDS011;9505;50.882;5.350;2023-02-01T01:59:19;52.03;;;12.20;;
18752;SDS011;9505;50.882;5.350;2023-02-01T02:01:46;50.78;;;13.25;;
18752;SDS011;9505;50.882;5.350;2023-02-01T02:04:12;51.65;;;12.27;;
18752;SDS011;9505;50.882;5.350;2023-02-01T02:09:07;43.95;;;12.13;;
18752;SDS011;9505;50.882;5.350;2023-02-01T02:11:32;54.95;;;12.88;;
18752;SDS011;9505;50.882;5.350;2023-02-01T02:13:58;50.70;;;11.60;;
18752;SDS011;9505;50.882;5.350;2023-02-01T02:38:26;38.58;;;6.60;;
18752;SDS011;9505;50.882;5.350;2023-02-01T02:41:14;37.25;;;7.10;;
18752;SDS011;9505;50.882;5.350;2023-02-01T02:47:41;31.00;;;6.43;;
18752;SDS011;9505;50.882;5.350;2023-02-01T02:53:23;24.35;;;5.28;;
18752;SDS011;9505;50.882;5.350;2023-02-01T02:56:13;30.63;;;5.32;;
18752;SDS011;9505;50.882;5.350;2023-02-01T02:58:58;44.28;;;6.03;;
18752;SDS011;9505;50.882;5.350;2023-02-01T03:01:44;37.80;;;6.13;;
18752;SDS011;9505;50.882;5.350;2023-02-01T03:04:28;14.80;;;3.70;;
18752;SDS011;9505;50.882;5.350;2023-02-01T03:06:54;32.80;;;4.78;;
18752;SDS011;9505;50.882;5.350;2023-02-01T03:11:55;19.60;;;3.92;;
18752;SDS011;9505;50.882;5.350;2023-02-01T03:14:45;22.55;;;3.83;;
18752;SDS011;9505;50.882;5.350;2023-02-01T03:17:14;21.77;;;3.75;;
18752;SDS011;9505;50.882;5.350;2023-02-01T03:19:46;35.95;;;4.85;;
18752;SDS011;9505;50.882;5.350;2023-02-01T03:22:23;15.45;;;3.22;;
18752;SDS011;9505;50.882;5.350;2023-02-01T03:24:52;36.05;;;5.28;;
18752;SDS011;9505;50.882;5.350;2023-02-01T03:27:34;26.48;;;4.25;;
18752;SDS011;9505;50.882;5.350;2023-02-01T03:30:13;32.15;;;4.05;;
18752;SDS011;9505;50.882;5.350;2023-02-01T03:32:47;28.83;;;4.22;;
18752;SDS011;9505;50.882;5.350;2023-02-01T03:38:30;27.67;;;4.15;;
18752;SDS011;9505;50.882;5.350;2023-02-01T03:46:38;21.50;;;3.42;;
18752;SDS011;9505;50.882;5.350;2023-02-01T03:49:15;28.92;;;3.15;;
18752;SDS011;9505;50.882;5.350;2023-02-01T03:51:51;34.80;;;4.93;;
18752;SDS011;9505;50.882;5.350;2023-02-01T03:54:18;26.80;;;3.45;;
18752;SDS011;9505;50.882;5.350;2023-02-01T03:56:44;30.50;;;3.92;;
18752;SDS011;9505;50.882;5.350;2023-02-01T03:59:12;39.03;;;3.63;;
18752;SDS011;9505;50.882;5.350;2023-02-01T04:01:39;16.80;;;2.80;;
18752;SDS011;9505;50.882;5.350;2023-02-01T04:04:04;31.70;;;4.32;;
18752;SDS011;9505;50.882;5.350;2023-02-01T04:06:30;30.90;;;3.78;;
18752;SDS011;9505;50.882;5.350;2023-02-01T04:08:56;31.42;;;3.80;;
18752;SDS011;9505;50.882;5.350;2023-02-01T04:11:21;24.83;;;3.35;;
18752;SDS011;9505;50.882;5.350;2023-02-01T04:13:47;31.65;;;4.18;;
18752;SDS011;9505;50.882;5.350;2023-02-01T04:16:13;33.03;;;4.70;;
18752;SDS011;9505;50.882;5.350;2023-02-01T04:18:38;20.50;;;2.90;;
18752;SDS011;9505;50.882;5.350;2023-02-01T04:21:04;29.88;;;4.55;;
18752;SDS011;9505;50.882;5.350;2023-02-01T04:23:30;26.77;;;4.03;;
18752;SDS011;9505;50.882;5.350;2023-02-01T04:26:03;21.75;;;3.60;;
18752;SDS011;9505;50.882;5.350;2023-02-01T04:28:29;27.63;;;4.13;;
18752;SDS011;9505;50.882;5.350;2023-02-01T04:30:55;28.77;;;4.15;;
18752;SDS011;9505;50.882;5.350;2023-02-01T04:33:21;27.10;;;2.95;;
18752;SDS011;9505;50.882;5.350;2023-02-01T04:35:47;23.70;;;3.45;;
18752;SDS011;9505;50.882;5.350;2023-02-01T04:38:13;32.65;;;3.70;;
18752;SDS011;9505;50.882;5.350;2023-02-01T04:40:38;33.17;;;3.63;;
18752;SDS011;9505;50.882;5.350;2023-02-01T04:43:04;35.30;;;4.70;;
18752;SDS011;9505;50.882;5.350;2023-02-01T04:45:30;24.25;;;3.35;;
18752;SDS011;9505;50.882;5.350;2023-02-01T04:47:55;30.15;;;5.15;;
18752;SDS011;9505;50.882;5.350;2023-02-01T04:50:21;30.73;;;4.60;;
18752;SDS011;9505;50.882;5.350;2023-02-01T04:52:48;28.02;;;4.30;;
18752;SDS011;9505;50.882;5.350;2023-02-01T04:55:14;21.27;;;4.45;;
18752;SDS011;9505;50.882;5.350;2023-02-01T04:57:39;30.98;;;4.60;;
18752;SDS011;9505;50.882;5.350;2023-02-01T05:00:08;34.38;;;5.28;;
18752;SDS011;9505;50.882;5.350;2023-02-01T05:02:34;28.10;;;4.20;;
18752;SDS011;9505;50.882;5.350;2023-02-01T05:05:01;41.33;;;4.30;;
18752;SDS011;9505;50.882;5.350;2023-02-01T05:07:27;22.98;;;3.17;;
18752;SDS011;9505;50.882;5.350;2023-02-01T05:09:52;32.17;;;4.55;;
18752;SDS011;9505;50.882;5.350;2023-02-01T05:12:18;29.63;;;4.60;;
18752;SDS011;9505;50.882;5.350;2023-02-01T05:15:02;32.40;;;3.60;;
18752;SDS011;9505;50.882;5.350;2023-02-01T05:17:28;26.70;;;5.13;;
18752;SDS011;9505;50.882;5.350;2023-02-01T05:19:54;47.40;;;4.82;;
18752;SDS011;9505;50.882;5.350;2023-02-01T05:22:20;22.70;;;3.30;;
18752;SDS011;9505;50.882;5.350;2023-02-01T05:24:45;20.83;;;3.78;;
18752;SDS011;9505;50.882;5.350;2023-02-01T05:27:11;28.52;;;4.18;;
18752;SDS011;9505;50.882;5.350;2023-02-01T05:29:36;18.98;;;3.55;;
18752;SDS011;9505;50.882;5.350;2023-02-01T05:32:02;36.28;;;4.80;;
18752;SDS011;9505;50.882;5.350;2023-02-01T05:34:28;34.65;;;4.85;;
18752;SDS011;9505;50.882;5.350;2023-02-01T05:36:53;33.17;;;4.88;;
18752;SDS011;9505;50.882;5.350;2023-02-01T05:39:19;39.22;;;4.95;;
18752;SDS011;9505;50.882;5.350;2023-02-01T05:41:44;35.22;;;4.28;;
18752;SDS011;9505;50.882;5.350;2023-02-01T05:44:10;49.40;;;4.88;;
18752;SDS011;9505;50.882;5.350;2023-02-01T05:46:37;28.98;;;4.18;;
18752;SDS011;9505;50.882;5.350;2023-02-01T05:49:03;34.88;;;5.28;;
18752;SDS011;9505;50.882;5.350;2023-02-01T05:51:29;23.50;;;3.53;;
18752;SDS011;9505;50.882;5.350;2023-02-01T05:53:55;23.10;;;3.95;;
18752;SDS011;9505;50.882;5.350;2023-02-01T05:56:20;28.10;;;4.80;;
18752;SDS011;9505;50.882;5.350;2023-02-01T05:58:46;38.85;;;5.20;;
18752;SDS011;9505;50.882;5.350;2023-02-01T06:01:12;55.38;;;6.13;;
18752;SDS011;9505;50.882;5.350;2023-02-01T06:03:37;26.00;;;3.58;;
18752;SDS011;9505;50.882;5.350;2023-02-01T06:06:03;26.88;;;4.82;;
18752;SDS011;9505;50.882;5.350;2023-02-01T06:08:29;38.13;;;5.07;;
18752;SDS011;9505;50.882;5.350;2023-02-01T06:10:58;36.42;;;4.63;;
18752;SDS011;9505;50.882;5.350;2023-02-01T06:13:28;30.17;;;4.53;;
18752;SDS011;9505;50.882;5.350;2023-02-01T06:15:54;27.00;;;3.40;;
18752;SDS011;9505;50.882;5.350;2023-02-01T06:18:22;44.90;;;5.65;;
18752;SDS011;9505;50.882;5.350;2023-02-01T06:20:52;40.15;;;6.07;;
18752;SDS011;9505;50.882;5.350;2023-02-01T06:23:21;50.15;;;5.75;;
18752;SDS011;9505;50.882;5.350;2023-02-01T06:25:52;23.63;;;4.13;;
18752;SDS011;9505;50.882;5.350;2023-02-01T06:28:23;40.38;;;4.90;;
18752;SDS011;9505;50.882;5.350;2023-02-01T06:30:49;36.50;;;5.05;;
18752;SDS011;9505;50.882;5.350;2023-02-01T06:33:14;36.63;;;4.68;;
18752;SDS011;9505;50.882;5.350;2023-02-01T06:35:41;34.97;;;4.75;;
18752;SDS011;9505;50.882;5.350;2023-02-01T06:38:09;33.65;;;4.05;;
18752;SDS011;9505;50.882;5.350;2023-02-01T06:40:36;35.47;;;4.82;;
18752;SDS011;9505;50.882;5.350;2023-02-01T06:43:02;31.02;;;3.97;;
18752;SDS011;9505;50.882;5.350;2023-02-01T06:45:28;34.90;;;3.55;;
18752;SDS011;9505;50.882;5.350;2023-02-01T06:47:53;34.90;;;4.20;;
18752;SDS011;9505;50.882;5.350;2023-02-01T06:50:19;39.80;;;4.80;;
18752;SDS011;9505;50.882;5.350;2023-02-01T06:52:45;22.95;;;3.83;;
18752;SDS011;9505;50.882;5.350;2023-02-01T06:55:11;28.92;;;4.70;;
18752;SDS011;9505;50.882;5.350;2023-02-01T06:57:36;23.17;;;3.42;;
18752;SDS011;9505;50.882;5.350;2023-02-01T07:00:05;33.92;;;4.20;;
18752;SDS011;9505;50.882;5.350;2023-02-01T07:02:31;31.00;;;3.30;;
18752;SDS011;9505;50.882;5.350;2023-02-01T07:04:57;31.10;;;5.75;;
18752;SDS011;9505;50.882;5.350;2023-02-01T07:07:22;33.50;;;3.78;;
18752;SDS011;9505;50.882;5.350;2023-02-01T07:09:48;28.23;;;4.00;;
18752;SDS011;9505;50.882;5.350;2023-02-01T07:12:14;50.35;;;5.65;;
18752;SDS011;9505;50.882;5.350;2023-02-01T07:14:40;31.98;;;4.60;;
18752;SDS011;9505;50.882;5.350;2023-02-01T07:17:06;26.80;;;3.95;;
18752;SDS011;9505;50.882;5.350;2023-02-01T07:19:32;29.83;;;4.10;;
18752;SDS011;9505;50.882;5.350;2023-02-01T07:21:57;45.88;;;5.82;;
18752;SDS011;9505;50.882;5.350;2023-02-01T07:24:23;30.52;;;5.38;;
18752;SDS011;9505;50.882;5.350;2023-02-01T07:26:49;34.30;;;4.45;;
18752;SDS011;9505;50.882;5.350;2023-02-01T07:29:16;41.45;;;5.53;;
18752;SDS011;9505;50.882;5.350;2023-02-01T07:31:42;42.92;;;4.78;;
18752;SDS011;9505;50.882;5.350;2023-02-01T07:34:07;26.15;;;4.15;;
18752;SDS011;9505;50.882;5.350;2023-02-01T07:36:33;36.33;;;4.90;;
18752;SDS011;9505;50.882;5.350;2023-02-01T07:39:01;28.23;;;3.95;;
18752;SDS011;9505;50.882;5.350;2023-02-01T07:41:27;41.50;;;5.20;;
18752;SDS011;9505;50.882;5.350;2023-02-01T07:43:53;29.33;;;3.80;;
18752;SDS011;9505;50.882;5.350;2023-02-01T07:46:19;40.53;;;4.97;;
18752;SDS011;9505;50.882;5.350;2023-02-01T07:48:45;26.45;;;4.60;;
18752;SDS011;9505;50.882;5.350;2023-02-01T07:51:11;30.63;;;4.68;;
18752;SDS011;9505;50.882;5.350;2023-02-01T07:53:39;35.60;;;4.65;;
18752;SDS011;9505;50.882;5.350;2023-02-01T07:56:09;33.55;;;5.28;;
18752;SDS011;9505;50.882;5.350;2023-02-01T07:58:38;30.05;;;4.35;;
18752;SDS011;9505;50.882;5.350;2023-02-01T08:01:04;47.10;;;5.53;;
18752;SDS011;9505;50.882;5.350;2023-02-01T08:03:45;33.85;;;4.78;;
18752;SDS011;9505;50.882;5.350;2023-02-01T08:06:16;36.55;;;4.75;;
18752;SDS011;9505;50.882;5.350;2023-02-01T08:08:42;20.05;;;3.67;;
18752;SDS011;9505;50.882;5.350;2023-02-01T08:11:10;31.05;;;4.95;;
18752;SDS011;9505;50.882;5.350;2023-02-01T08:13:35;26.17;;;3.95;;
18752;SDS011;9505;50.882;5.350;2023-02-01T08:16:03;30.35;;;4.63;;
18752;SDS011;9505;50.882;5.350;2023-02-01T08:18:31;34.67;;;5.05;;
18752;SDS011;9505;50.882;5.350;2023-02-01T08:21:01;32.33;;;4.35;;
18752;SDS011;9505;50.882;5.350;2023-02-01T08:23:32;32.92;;;6.20;;
18752;SDS011;9505;50.882;5.350;2023-02-01T08:26:11;40.00;;;4.78;;
18752;SDS011;9505;50.882;5.350;2023-02-01T08:28:39;42.50;;;5.80;;
18752;SDS011;9505;50.882;5.350;2023-02-01T08:31:07;38.08;;;5.97;;
18752;SDS011;9505;50.882;5.350;2023-02-01T08:33:34;33.47;;;5.28;;
18752;SDS011;9505;50.882;5.350;2023-02-01T08:36:03;21.15;;;3.50;;
18752;SDS011;9505;50.882;5.350;2023-02-01T08:38:29;47.28;;;5.63;;
18752;SDS011;9505;50.882;5.350;2023-02-01T08:40:54;40.88;;;4.35;;
18752;SDS011;9505;50.882;5.350;2023-02-01T08:43:20;24.15;;;3.70;;
18752;SDS011;9505;50.882;5.350;2023-02-01T08:45:46;31.52;;;4.75;;
18752;SDS011;9505;50.882;5.350;2023-02-01T08:48:12;29.33;;;3.65;;
18752;SDS011;9505;50.882;5.350;2023-02-01T08:50:37;34.28;;;4.53;;
18752;SDS011;9505;50.882;5.350;2023-02-01T08:53:03;41.92;;;4.22;;
18752;SDS011;9505;50.882;5.350;2023-02-01T08:55:29;23.88;;;3.58;;
18752;SDS011;9505;50.882;5.350;2023-02-01T08:57:55;19.52;;;3.35;;
18752;SDS011;9505;50.882;5.350;2023-02-01T09:00:21;38.83;;;4.07;;
18752;SDS011;9505;50.882;5.350;2023-02-01T09:02:46;31.45;;;4.13;;
18752;SDS011;9505;50.882;5.350;2023-02-01T09:05:12;33.45;;;4.75;;
18752;SDS011;9505;50.882;5.350;2023-02-01T09:07:39;23.52;;;3.58;;
18752;SDS011;9505;50.882;5.350;2023-02-01T09:10:05;28.90;;;4.30;;
18752;SDS011;9505;50.882;5.350;2023-02-01T09:12:31;23.90;;;3.08;;
18752;SDS011;9505;50.882;5.350;2023-02-01T09:14:58;26.45;;;3.38;;
18752;SDS011;9505;50.882;5.350;2023-02-01T09:17:27;31.23;;;3.90;;
18752;SDS011;9505;50.882;5.350;2023-02-01T09:19:53;29.92;;;3.92;;
18752;SDS011;9505;50.882;5.350;2023-02-01T09:22:19;29.80;;;4.57;;
18752;SDS011;9505;50.882;5.350;2023-02-01T09:24:45;31.23;;;3.80;;
18752;SDS011;9505;50.882;5.350;2023-02-01T09:27:11;32.25;;;4.05;;
18752;SDS011;9505;50.882;5.350;2023-02-01T09:29:36;13.68;;;3.10;;
18752;SDS011;9505;50.882;5.350;2023-02-01T09:32:02;24.63;;;3.95;;
18752;SDS011;9505;50.882;5.350;2023-02-01T09:34:28;33.47;;;4.63;;
18752;SDS011;9505;50.882;5.350;2023-02-01T09:36:54;32.75;;;5.15;;
18752;SDS011;9505;50.882;5.350;2023-02-01T09:39:19;36.15;;;3.90;;
18752;SDS011;9505;50.882;5.350;2023-02-01T09:41:49;31.08;;;4.20;;
18752;SDS011;9505;50.882;5.350;2023-02-01T09:46:43;32.58;;;3.97;;
18752;SDS011;9505;50.882;5.350;2023-02-01T09:49:11;20.63;;;3.50;;
18752;SDS011;9505;50.882;5.350;2023-02-01T09:51:42;24.70;;;3.42;;
18752;SDS011;9505;50.882;5.350;2023-02-01T09:54:20;45.00;;;5.28;;
18752;SDS011;9505;50.882;5.350;2023-02-01T09:56:53;20.83;;;3.58;;
18752;SDS011;9505;50.882;5.350;2023-02-01T09:59:43;28.50;;;4.47;;
18752;SDS011;9505;50.882;5.350;2023-02-01T10:02:16;13.27;;;2.67;;
18752;SDS011;9505;50.882;5.350;2023-02-01T10:04:46;35.03;;;4.28;;
18752;SDS011;9505;50.882;5.350;2023-02-01T10:07:15;35.75;;;3.95;;
18752;SDS011;9505;50.882;5.350;2023-02-01T10:20:18;17.40;;;2.72;;
18752;SDS011;9505;50.882;5.350;2023-02-01T10:25:33;37.58;;;4.72;;
18752;SDS011;9505;50.882;5.350;2023-02-01T10:28:06;19.23;;;3.50;;
18752;SDS011;9505;50.882;5.350;2023-02-01T10:30:41;28.98;;;3.90;;
18752;SDS011;9505;50.882;5.350;2023-02-01T10:33:26;27.30;;;3.78;;
18752;SDS011;9505;50.882;5.350;2023-02-01T10:35:54;38.38;;;3.47;;
18752;SDS011;9505;50.882;5.350;2023-02-01T10:38:26;31.95;;;3.85;;
18752;SDS011;9505;50.882;5.350;2023-02-01T10:40:54;41.45;;;3.70;;
18752;SDS011;9505;50.882;5.350;2023-02-01T10:43:25;36.33;;;4.13;;
18752;SDS011;9505;50.882;5.350;2023-02-01T10:45:50;36.38;;;4.57;;
18752;SDS011;9505;50.882;5.350;2023-02-01T10:48:16;29.60;;;3.47;;
18752;SDS011;9505;50.882;5.350;2023-02-01T10:55:58;27.02;;;3.50;;
18752;SDS011;9505;50.882;5.350;2023-02-01T10:58:32;30.33;;;4.30;;
18752;SDS011;9505;50.882;5.350;2023-02-01T11:03:39;33.55;;;3.97;;
18752;SDS011;9505;50.882;5.350;2023-02-01T11:06:29;36.50;;;4.82;;
18752;SDS011;9505;50.882;5.350;2023-02-01T11:08:56;29.10;;;4.10;;
18752;SDS011;9505;50.882;5.350;2023-02-01T11:11:24;25.52;;;3.92;;
18752;SDS011;9505;50.882;5.350;2023-02-01T11:14:00;37.25;;;5.53;;
18752;SDS011;9505;50.882;5.350;2023-02-01T11:16:38;37.25;;;4.35;;
18752;SDS011;9505;50.882;5.350;2023-02-01T11:19:05;32.67;;;4.10;;
18752;SDS011;9505;50.882;5.350;2023-02-01T11:21:32;33.40;;;4.38;;
18752;SDS011;9505;50.882;5.350;2023-02-01T11:24:05;27.90;;;4.07;;
18752;SDS011;9505;50.882;5.350;2023-02-01T11:26:34;32.95;;;4.50;;
18752;SDS011;9505;50.882;5.350;2023-02-01T11:29:10;26.63;;;3.95;;
18752;SDS011;9505;50.882;5.350;2023-02-01T11:31:38;30.65;;;4.65;;
18752;SDS011;9505;50.882;5.350;2023-02-01T11:34:41;26.08;;;3.88;;
18752;SDS011;9505;50.882;5.350;2023-02-01T11:37:13;27.27;;;3.40;;
18752;SDS011;9505;50.882;5.350;2023-02-01T11:40:35;23.88;;;3.13;;
18752;SDS011;9505;50.882;5.350;2023-02-01T11:42:58;20.10;;;3.15;;
18752;SDS011;9505;50.882;5.350;2023-02-01T11:47:56;30.50;;;3.38;;
18752;SDS011;9505;50.882;5.350;2023-02-01T12:10:46;23.70;;;3.13;;
18752;SDS011;9505;50.882;5.350;2023-02-01T12:13:47;29.80;;;3.80;;
18752;SDS011;9505;50.882;5.350;2023-02-01T12:19:29;20.08;;;2.42;;
18752;SDS011;9505;50.882;5.350;2023-02-01T12:30:42;20.83;;;3.10;;
18752;SDS011;9505;50.882;5.350;2023-02-01T12:39:25;20.65;;;2.88;;
18752;SDS011;9505;50.882;5.350;2023-02-01T12:41:58;21.17;;;3.05;;
18752;SDS011;9505;50.882;5.350;2023-02-01T12:49:55;44.53;;;5.88;;
18752;SDS011;9505;50.882;5.350;2023-02-01T12:52:35;51.88;;;6.70;;
18752;SDS011;9505;50.882;5.350;2023-02-01T12:57:43;24.25;;;3.03;;
18752;SDS011;9505;50.882;5.350;2023-02-01T13:03:43;37.50;;;4.90;;
18752;SDS011;9505;50.882;5.350;2023-02-01T13:05:53;22.75;;;2.90;;
18752;SDS011;9505;50.882;5.350;2023-02-01T13:08:25;42.13;;;6.05;;
18752;SDS011;9505;50.882;5.350;2023-02-01T13:11:06;29.40;;;4.07;;
18752;SDS011;9505;50.882;5.350;2023-02-01T13:13:52;29.15;;;3.72;;
18752;SDS011;9505;50.882;5.350;2023-02-01T13:16:42;24.52;;;3.42;;
18752;SDS011;9505;50.882;5.350;2023-02-01T13:19:17;26.85;;;3.53;;
18752;SDS011;9505;50.882;5.350;2023-02-01T13:21:53;38.60;;;3.63;;
18752;SDS011;9505;50.882;5.350;2023-02-01T13:27:12;49.58;;;6.72;;
18752;SDS011;9505;50.882;5.350;2023-02-01T13:29:50;38.28;;;5.75;;
18752;SDS011;9505;50.882;5.350;2023-02-01T13:38:33;24.13;;;3.22;;
18752;SDS011;9505;50.882;5.350;2023-02-01T13:41:30;41.95;;;4.68;;
18752;SDS011;9505;50.882;5.350;2023-02-01T13:47:13;24.65;;;3.55;;
18752;SDS011;9505;50.882;5.350;2023-02-01T13:49:47;26.63;;;3.30;;
18752;SDS011;9505;50.882;5.350;2023-02-01T13:52:50;20.40;;;2.38;;
18752;SDS011;9505;50.882;5.350;2023-02-01T13:57:46;20.40;;;3.20;;
18752;SDS011;9505;50.882;5.350;2023-02-01T14:00:24;20.92;;;3.13;;
18752;SDS011;9505;50.882;5.350;2023-02-01T14:13:13;20.27;;;2.58;;
18752;SDS011;9505;50.882;5.350;2023-02-01T14:16:10;22.77;;;3.13;;
18752;SDS011;9505;50.882;5.350;2023-02-01T14:23:40;24.65;;;3.22;;
18752;SDS011;9505;50.882;5.350;2023-02-01T14:26:10;27.00;;;3.33;;
18752;SDS011;9505;50.882;5.350;2023-02-01T14:28:41;14.73;;;2.58;;
18752;SDS011;9505;50.882;5.350;2023-02-01T14:33:57;15.77;;;2.20;;
18752;SDS011;9505;50.882;5.350;2023-02-01T14:36:25;14.88;;;2.70;;
18752;SDS011;9505;50.882;5.350;2023-02-01T14:39:03;18.63;;;2.67;;
18752;SDS011;9505;50.882;5.350;2023-02-01T14:49:36;49.95;;;5.85;;
18752;SDS011;9505;50.882;5.350;2023-02-01T14:52:09;51.75;;;6.65;;
18752;SDS011;9505;50.882;5.350;2023-02-01T14:54:39;51.63;;;6.93;;
18752;SDS011;9505;50.882;5.350;2023-02-01T14:57:08;54.15;;;6.20;;
18752;SDS011;9505;50.882;5.350;2023-02-01T14:59:40;39.03;;;5.40;;
18752;SDS011;9505;50.882;5.350;2023-02-01T15:02:18;20.73;;;2.50;;
18752;SDS011;9505;50.882;5.350;2023-02-01T15:04:50;61.47;;;7.85;;
18752;SDS011;9505;50.882;5.350;2023-02-01T15:07:20;42.67;;;5.90;;
18752;SDS011;9505;50.882;5.350;2023-02-01T15:09:46;21.35;;;3.42;;
18752;SDS011;9505;50.882;5.350;2023-02-01T15:12:18;19.27;;;2.40;;
18752;SDS011;9505;50.882;5.350;2023-02-01T15:17:38;56.53;;;7.05;;
18752;SDS011;9505;50.882;5.350;2023-02-01T15:22:35;24.05;;;2.92;;
18752;SDS011;9505;50.882;5.350;2023-02-01T15:25:01;24.98;;;3.42;;
18752;SDS011;9505;50.882;5.350;2023-02-01T15:27:27;55.58;;;6.00;;
18752;SDS011;9505;50.882;5.350;2023-02-01T15:29:54;47.08;;;6.20;;
18752;SDS011;9505;50.882;5.350;2023-02-01T15:32:36;25.05;;;3.42;;
18752;SDS011;9505;50.882;5.350;2023-02-01T15:35:03;65.18;;;7.25;;
18752;SDS011;9505;50.882;5.350;2023-02-01T15:37:30;34.20;;;4.63;;
18752;SDS011;9505;50.882;5.350;2023-02-01T15:42:38;43.60;;;5.80;;
18752;SDS011;9505;50.882;5.350;2023-02-01T15:45:32;26.52;;;3.50;;
18752;SDS011;9505;50.882;5.350;2023-02-01T15:47:58;48.88;;;6.70;;
18752;SDS011;9505;50.882;5.350;2023-02-01T15:50:25;38.55;;;5.43;;
18752;SDS011;9505;50.882;5.350;2023-02-01T15:52:53;48.28;;;6.60;;
18752;SDS011;9505;50.882;5.350;2023-02-01T15:55:24;27.77;;;4.05;;
18752;SDS011;9505;50.882;5.350;2023-02-01T15:58:00;54.05;;;6.75;;
18752;SDS011;9505;50.882;5.350;2023-02-01T16:00:34;37.65;;;5.07;;
18752;SDS011;9505;50.882;5.350;2023-02-01T16:03:20;42.17;;;5.55;;
18752;SDS011;9505;50.882;5.350;2023-02-01T16:06:07;21.27;;;3.33;;
18752;SDS011;9505;50.882;5.350;2023-02-01T16:08:38;20.20;;;3.13;;
18752;SDS011;9505;50.882;5.350;2023-02-01T16:11:40;21.65;;;3.20;;
18752;SDS011;9505;50.882;5.350;2023-02-01T16:14:11;22.15;;;2.85;;
18752;SDS011;9505;50.882;5.350;2023-02-01T16:16:37;49.05;;;6.22;;
18752;SDS011;9505;50.882;5.350;2023-02-01T16:19:02;56.78;;;6.75;;
18752;SDS011;9505;50.882;5.350;2023-02-01T16:21:28;29.13;;;3.90;;
18752;SDS011;9505;50.882;5.350;2023-02-01T16:23:53;29.63;;;3.60;;
18752;SDS011;9505;50.882;5.350;2023-02-01T16:26:19;44.65;;;4.57;;
18752;SDS011;9505;50.882;5.350;2023-02-01T16:28:45;51.47;;;7.05;;
18752;SDS011;9505;50.882;5.350;2023-02-01T16:31:13;48.85;;;5.72;;
18752;SDS011;9505;50.882;5.350;2023-02-01T16:33:46;37.13;;;5.20;;
18752;SDS011;9505;50.882;5.350;2023-02-01T16:36:15;24.58;;;3.50;;
18752;SDS011;9505;50.882;5.350;2023-02-01T16:38:41;24.35;;;2.88;;
18752;SDS011;9505;50.882;5.350;2023-02-01T16:41:10;44.08;;;5.88;;
18752;SDS011;9505;50.882;5.350;2023-02-01T16:43:38;49.45;;;6.20;;
18752;SDS011;9505;50.882;5.350;2023-02-01T16:46:04;60.20;;;7.65;;
18752;SDS011;9505;50.882;5.350;2023-02-01T16:48:35;44.97;;;5.68;;
18752;SDS011;9505;50.882;5.350;2023-02-01T16:51:03;28.33;;;3.35;;
18752;SDS011;9505;50.882;5.350;2023-02-01T16:53:32;27.23;;;3.33;;
18752;SDS011;9505;50.882;5.350;2023-02-01T16:55:58;27.05;;;4.32;;
18752;SDS011;9505;50.882;5.350;2023-02-01T16:58:24;50.95;;;6.68;;
18752;SDS011;9505;50.882;5.350;2023-02-01T17:00:51;48.78;;;6.65;;
18752;SDS011;9505;50.882;5.350;2023-02-01T17:03:17;28.88;;;3.55;;
18752;SDS011;9505;50.882;5.350;2023-02-01T17:05:44;28.25;;;3.08;;
18752;SDS011;9505;50.882;5.350;2023-02-01T17:08:18;18.38;;;2.75;;
18752;SDS011;9505;50.882;5.350;2023-02-01T17:10:48;31.27;;;4.78;;
18752;SDS011;9505;50.882;5.350;2023-02-01T17:13:14;50.60;;;7.65;;
18752;SDS011;9505;50.882;5.350;2023-02-01T17:15:43;33.33;;;5.25;;
18752;SDS011;9505;50.882;5.350;2023-02-01T17:18:15;44.22;;;6.18;;
18752;SDS011;9505;50.882;5.350;2023-02-01T17:20:42;21.83;;;4.40;;
18752;SDS011;9505;50.882;5.350;2023-02-01T17:23:08;36.88;;;4.40;;
18752;SDS011;9505;50.882;5.350;2023-02-01T17:25:34;52.75;;;7.13;;
18752;SDS011;9505;50.882;5.350;2023-02-01T17:27:59;48.78;;;7.55;;
18752;SDS011;9505;50.882;5.350;2023-02-01T17:30:25;40.15;;;6.20;;
18752;SDS011;9505;50.882;5.350;2023-02-01T17:32:50;24.70;;;4.55;;
18752;SDS011;9505;50.882;5.350;2023-02-01T17:35:20;37.38;;;6.15;;
18752;SDS011;9505;50.882;5.350;2023-02-01T17:37:49;38.38;;;6.57;;
18752;SDS011;9505;50.882;5.350;2023-02-01T17:40:16;41.00;;;6.65;;
18752;SDS011;9505;50.882;5.350;2023-02-01T17:42:41;25.33;;;3.88;;
18752;SDS011;9505;50.882;5.350;2023-02-01T17:47:36;36.80;;;5.10;;
18752;SDS011;9505;50.882;5.350;2023-02-01T17:50:02;59.08;;;7.82;;
18752;SDS011;9505;50.882;5.350;2023-02-01T17:52:28;50.50;;;6.22;;